Estaciones Metar próximas

 

LELL - Sabadell, Spain
Distancia a la estación: E 18km
Actualizado: 01/10/2022 03:00
Despejado
Despejado
 Viento del ONO
Viento: ONO 7 km/h
Temperatura: 12°C
Rocío: 10°C
Humedad: 88%
Barómetro: 1020 hPa
Resumen: Despejado
Visibilidad: greater than 10 km
2022/10/01 01:00 LELL 010100Z AUTO 30004KT CAVOK 12/10 Q1020
LEBL - Barcelona Airpor, Spain
Distancia a la estación: SSE 33km
Actualizado: 01/10/2022 03:00
Despejado
Despejado
 Viento del NNO
Viento: NNO 17 km/h
Temperatura: 16°C
Rocío: 11°C
Humedad: 72%
Barómetro: 1019 hPa
Resumen: Despejado
Visibilidad: greater than 10 km
2022/10/01 01:00 LEBL 010100Z 33009KT CAVOK 16/11 Q1019 NOSIG
LERS - Reus (civ/Mil), Spain
Distancia a la estación: SO 75km
Actualizado: 01/10/2022 03:00
Despejado
Despejado
 Viento del S
Viento: S 6 km/h
Temperatura: 12°C
Rocío: 6°C
Humedad: 67%
Barómetro: 1019 hPa
Resumen: Despejado
Visibilidad: greater than 10 km
2022/10/01 01:00 LERS 010100Z AUTO 17003KT CAVOK 12/06 Q1019
 
LEGE - Gerona/Costa Bra, Spain
Distancia a la estación: ENE 83km
Actualizado: 01/10/2022 03:00
Parcialmente nuboso
Parcialmente nuboso
 Viento del ONO
Viento: ONO 7 km/h
Temperatura: 12°C
Rocío: 11°C
Humedad: 94%
Barómetro: 1019 hPa
Nubes: Parcialmente nuboso
Visibilidad: 10 km
Detalle Nubes: Nubes dispersas 610 m
Parcialmente nuboso 1829 m
2022/10/01 01:00 LEGE 010100Z 30004KT 9999 FEW020 SCT060 12/11 Q1019
LFMP - Perpignan/Rivesa, France
Distancia a la estación: NNE 155km
Actualizado: 01/10/2022 03:00
Despejado
Despejado
 Viento del OSO
Viento: OSO 9 km/h
Temperatura: 14°C
Rocío: 8°C
Humedad: 67%
Barómetro: 1020 hPa
Resumen: Despejado
Visibilidad: greater than 10 km
2022/10/01 01:00 LFMP 010100Z AUTO 24005KT CAVOK 14/08 Q1020
LFMK - Carcassonne/Salv, France
Distancia a la estación: N 191km
Actualizado: 01/10/2022 03:00
Despejado
Despejado
 Viento del O
Viento: O 9 km/h
Temperatura: 11°C
Rocío: 8°C
Humedad: 82%
Barómetro: 1020 hPa
Resumen: Despejado
Visibilidad: greater than 10 km
2022/10/01 01:00 LFMK 010100Z AUTO 26005KT CAVOK 11/08 Q1020
 
LEHC - Huesca-Pirineos, Spain
Distancia a la estación: ONO 193km
Actualizado: 01/10/2022 03:00
Despejado
Despejado
 Viento del O
Viento: O 11 km/h
Temperatura: 9°C
Sensación Térmica: 7°C
Rocío: 5°C
Humedad: 76%
Barómetro: 1020 hPa
Resumen: Despejado
Visibilidad: greater than 10 km
2022/10/01 01:00 LEHC 010100Z AUTO 26006KT CAVOK 09/05 Q1020
LFMU - Beziers/Vias, France
Distancia a la estación: NNE 232km
Actualizado: 01/10/2022 03:00
Despejado
Despejado
 Viento del O
Viento: O 7 km/h
Temperatura: 12°C
Rocío: 7°C
Humedad: 72%
Barómetro: 1019 hPa
Resumen: Despejado
Visibilidad: greater than 10 km
2022/10/01 01:00 LFMU 010100Z AUTO 27004KT 220V320 CAVOK 12/07 Q1019
LEPA - Palma De Mallorc, Spain
Distancia a la estación: SSE 233km
Actualizado: 01/10/2022 03:00
Nubes dispersas
Nubes dispersas
 Viento del varies
Viento: varies 4 km/h
Temperatura: 12°C
Rocío: 11°C
Humedad: 94%
Barómetro: 1020 hPa
Nubes: Nubes dispersas
Visibilidad: 10 km
Detalle Nubes: Nubes dispersas 1372 m
2022/10/01 01:00 LEPA 010100Z VRB02KT 9999 FEW045 12/11 Q1020 NOSIG
 
LFBO - Toulouse/Blagnac, France
Distancia a la estación: N 236km
Actualizado: 01/10/2022 03:00
Despejado
Despejado
 Viento del S
Viento: S 6 km/h
Temperatura: 10°C
Rocío: 8°C
Humedad: 88%
Barómetro: 1021 hPa
Resumen: Despejado
Visibilidad: greater than 10 km
2022/10/01 01:00 LFBO 010100Z AUTO 18003KT CAVOK 10/08 Q1021 TEMPO 4000 BR
LFBT - Tarbes/Ossun, France
Distancia a la estación: NO 239km
Actualizado: 01/10/2022 03:00
Despejado
Despejado
 Viento del S
Viento: S 9 km/h
Temperatura: 9°C
Sensación Térmica: 7°C
Rocío: 6°C
Humedad: 82%
Barómetro: 1021 hPa
Resumen: Despejado
Visibilidad: greater than 10 km
2022/10/01 01:00 LFBT 010100Z AUTO 18005KT CAVOK 09/06 Q1021 NOSIG
LEZG - Zaragoza (mil/Ci, Spain
Distancia a la estación: O 242km
Actualizado: 01/10/2022 03:00
Despejado
Despejado
 Viento del O
Viento: O 15 km/h
Temperatura: 14°C
Rocío: 9°C
Humedad: 72%
Barómetro: 1021 hPa
Resumen: Despejado
Visibilidad: greater than 10 km
2022/10/01 01:00 LEZG 010100Z 27008KT CAVOK 14/09 Q1021